Palm Springs, California
Current Conditions -  °F | °C
As of 9:53 AM on Sunday 21 Dec 2014 (Local Time) from KPSP Reporting Station
Broken Clouds Broken Clouds  
Wind Chill: 17°   Ceiling: 20000
Heat Index: 17°   Visibility: 10mi
Dew Point:   Wind: 0mph
Humidity: 52%   Direction: NA
Pressure: 30.15"   Gusts: NA
Location:  33.82°N, 116.51°W
Report Text: KPSP 211753Z 00000KT 10SM BKN200 17/07 A3015 RMK AO2 SLP211 T01670067 10167 20083 50006
Loading
Personal Weather Stations






























Interactive Weather Map New forecast layout! Learn more

10-Day Weather Forecast

Advertisements
Track Severe Weather on mobile